Zeigler, Illinois
Current Conditions -  °F | °C
As of 7:15 PM on Tuesday 21 Oct 2014 (Local Time) from KMWA Reporting Station
Clear Clear  
Wind Chill: 13°   Ceiling: Unl
Heat Index: 13°   Visibility: 10mi
Dew Point:   Wind: 5mph
Humidity: 67%   Direction: 20°NNE
Pressure: 30.13"   Gusts: NA
Location:  37.9°N, 89.05°W
Report Text: KMWA 220015Z AUTO 02004KT 10SM CLR 13/07 A3013 RMK AO2
Loading
Personal Weather Stations






























Interactive Weather Map
Tropical Storm Tracking
New forecast layout! Learn more

10-Day Weather Forecast

Advertisements
Track Severe Weather on mobile